aviador You're here:

KPRN Decoded Metar

in _UNIDENTIFIED
Report Time2017-08-06 07:56:00
UTC Time2017-08-18 03:07:22
Flight Rules Old
Wind200° at 03 kt
W.Decomp.*RWY 14: 1.4 kt HW 2.6 kt RCW
W.Rank200° ranks 9
Current wind is below 200° avg. (5.6)
Visibility9999 m
Phenomena:N/A
Clouds:N/A
Expected CloudBase > 400 ft AGL from Temp-Dew spread
CeilingNone
Temp23°C (ISA +9)
Dew Point22°C (94% RH)
QNH1016 hPa
Density Alt1,736 ft
Elevation453 ft
Report Wrong Elevation
Raw Report
METAR KPRN 060756Z AUTO 20003KT 9SM CLR 23/22 A3001 RMK AO2 SLP156
T02330217=

Extra information for KPRN:More info

Metar Taf Metar & Taf Last 4 Metars F.Rules Stats Wind Profile Meteogram Temp Stats Metar ALERT Operation Metar Decoded Social comments